createdAt,value
2019-05-07T00:02:19.768Z,2.45
2019-05-07T00:04:49.156Z,2.27
2019-05-07T00:07:18.048Z,2.37
2019-05-07T00:09:47.137Z,2.40
2019-05-07T00:12:16.245Z,2.72
2019-05-07T00:14:58.178Z,2.67
2019-05-07T00:17:15.713Z,2.35
2019-05-07T00:19:45.065Z,2.40
2019-05-07T00:22:14.167Z,2.30
2019-05-07T00:24:43.145Z,2.58
2019-05-07T00:27:13.131Z,2.35
2019-05-07T00:29:43.017Z,2.45
2019-05-07T00:32:12.306Z,2.40
2019-05-07T00:34:43.217Z,2.50
2019-05-07T00:37:14.386Z,3.08
2019-05-07T00:39:45.106Z,3.12
2019-05-07T00:42:27.727Z,2.62
2019-05-07T00:45:16.975Z,2.42
2019-05-07T00:47:37.935Z,3.35
2019-05-07T00:50:09.145Z,2.35
2019-05-07T00:52:38.225Z,2.42
2019-05-07T00:55:07.910Z,2.27
2019-05-07T00:57:37.037Z,2.92
2019-05-07T01:00:10.099Z,2.08
2019-05-07T01:02:39.101Z,2.58
2019-05-07T01:05:08.326Z,2.42
2019-05-07T01:07:37.405Z,2.20
2019-05-07T01:10:08.030Z,2.40
2019-05-07T01:12:37.596Z,3.55
2019-05-07T01:15:07.460Z,2.45
2019-05-07T01:17:36.542Z,2.45
2019-05-07T01:20:07.366Z,2.02
2019-05-07T01:25:36.811Z,2.10
2019-05-07T01:28:05.913Z,2.42
2019-05-07T01:30:35.219Z,2.45
2019-05-07T01:33:05.832Z,2.25
2019-05-07T01:35:39.631Z,2.95
2019-05-07T01:38:11.783Z,2.30
2019-05-07T01:40:42.688Z,2.10
2019-05-07T01:43:12.081Z,2.70
2019-05-07T01:45:49.323Z,2.10
2019-05-07T01:48:15.867Z,2.20
2019-05-07T01:50:44.837Z,2.08
2019-05-07T01:53:13.850Z,2.08
2019-05-07T01:55:42.948Z,2.05
2019-05-07T01:58:12.611Z,2.00
2019-05-07T02:00:42.606Z,2.10
2019-05-07T02:03:25.607Z,2.10
2019-05-07T02:05:56.127Z,2.47
2019-05-07T02:08:45.085Z,2.50
2019-05-07T02:11:32.700Z,2.30
2019-05-07T02:14:02.097Z,2.92
2019-05-07T02:16:32.640Z,2.62
2019-05-07T02:19:02.152Z,3.80
2019-05-07T02:21:33.030Z,2.52
2019-05-07T02:24:03.402Z,2.35
2019-05-07T02:26:32.727Z,2.42
2019-05-07T02:29:02.697Z,2.25
2019-05-07T02:31:33.676Z,2.77
2019-05-07T02:34:03.065Z,2.27
2019-05-07T02:36:34.070Z,2.72
2019-05-07T02:39:14.163Z,2.25
2019-05-07T02:41:44.184Z,2.47
2019-05-07T02:44:14.256Z,2.55
2019-05-07T02:47:04.081Z,2.20
2019-05-07T02:49:38.017Z,2.95
2019-05-07T02:52:23.028Z,2.72
2019-05-07T02:54:58.503Z,3.30
2019-05-07T02:57:29.124Z,2.90
2019-05-07T02:59:58.248Z,2.15
2019-05-07T03:02:27.114Z,2.50
2019-05-07T03:04:56.215Z,2.42
2019-05-07T03:07:25.319Z,2.15
2019-05-07T03:09:54.255Z,2.55
2019-05-07T03:12:23.887Z,2.27
2019-05-07T03:14:53.951Z,2.30
2019-05-07T03:17:24.490Z,2.30
2019-05-07T03:19:55.080Z,2.30
2019-05-07T03:22:24.198Z,2.52
2019-05-07T03:24:57.493Z,2.15
2019-05-07T03:27:26.684Z,2.22
2019-05-07T03:30:04.379Z,2.60
2019-05-07T03:32:55.662Z,2.35
2019-05-07T03:35:27.217Z,2.80
2019-05-07T03:37:56.136Z,2.60
2019-05-07T03:40:25.337Z,2.70
2019-05-07T03:42:54.430Z,2.85
2019-05-07T03:45:25.059Z,4.05
2019-05-07T03:47:55.694Z,2.40
2019-05-07T03:50:24.793Z,2.27
2019-05-07T03:52:54.514Z,2.37
2019-05-07T03:55:23.805Z,2.40
2019-05-07T03:57:52.914Z,2.67
2019-05-07T04:00:23.889Z,2.75
2019-05-07T04:02:52.830Z,2.67
2019-05-07T04:05:23.156Z,2.87
2019-05-07T04:07:53.992Z,2.80
2019-05-07T04:10:23.445Z,4.58
2019-05-07T04:12:53.367Z,3.00
2019-05-07T04:15:23.378Z,2.60
2019-05-07T04:17:53.729Z,3.30
2019-05-07T04:20:24.012Z,2.87
2019-05-07T04:22:53.695Z,2.90
2019-05-07T04:25:43.504Z,3.12
2019-05-07T04:28:14.703Z,2.75
2019-05-07T04:30:44.005Z,3.10
2019-05-07T04:33:14.846Z,2.70
2019-05-07T04:35:45.675Z,2.77
2019-05-07T04:38:14.752Z,3.10
2019-05-07T04:40:43.823Z,3.47
2019-05-07T04:43:13.778Z,2.70
2019-05-07T04:45:43.421Z,3.30
2019-05-07T04:48:14.146Z,3.58
2019-05-07T04:50:47.740Z,2.62
2019-05-07T04:53:15.685Z,3.17
2019-05-07T04:55:44.797Z,3.08
2019-05-07T04:58:14.149Z,3.08
2019-05-07T05:00:43.578Z,3.90
2019-05-07T05:03:14.217Z,4.10
2019-05-07T05:05:43.707Z,4.55
2019-05-07T05:08:13.347Z,3.50
2019-05-07T05:10:43.460Z,4.22
2019-05-07T05:13:13.116Z,4.25
2019-05-07T05:15:43.078Z,4.00
2019-05-07T05:18:12.883Z,3.85
2019-05-07T05:21:02.638Z,3.98
2019-05-07T05:23:35.761Z,3.45
2019-05-07T05:26:05.062Z,3.55
2019-05-07T05:28:34.052Z,3.40
2019-05-07T05:31:07.532Z,3.58
2019-05-07T05:33:36.650Z,3.80
2019-05-07T05:36:05.637Z,3.58
2019-05-07T05:38:34.734Z,3.70
2019-05-07T05:41:03.937Z,3.47
2019-05-07T05:43:37.328Z,4.10
2019-05-07T05:46:07.858Z,3.08
2019-05-07T05:48:36.947Z,3.42
2019-05-07T05:51:19.867Z,3.60
2019-05-07T05:54:01.898Z,3.95
2019-05-07T05:56:42.656Z,3.65
2019-05-07T05:59:27.757Z,3.22
2019-05-07T06:02:12.133Z,4.10
2019-05-07T06:04:52.838Z,3.60
2019-05-07T06:07:26.843Z,3.35
2019-05-07T06:10:16.012Z,3.27
2019-05-07T06:13:01.835Z,3.50
2019-05-07T06:15:49.222Z,4.85
2019-05-07T06:18:36.132Z,4.90
2019-05-07T06:21:12.641Z,5.55
2019-05-07T06:23:43.333Z,4.67
2019-05-07T06:26:12.796Z,4.85
2019-05-07T06:28:42.523Z,5.45
2019-05-07T06:31:12.685Z,4.53
2019-05-07T06:33:42.995Z,4.87
2019-05-07T06:36:12.598Z,4.95
2019-05-07T06:38:43.413Z,4.83
2019-05-07T06:41:32.178Z,5.53
2019-05-07T06:44:02.529Z,6.72
2019-05-07T06:46:32.322Z,5.90
2019-05-07T06:49:02.157Z,5.78
2019-05-07T06:51:32.833Z,7.10
2019-05-07T06:54:02.798Z,6.40
2019-05-07T06:56:32.616Z,6.47
2019-05-07T06:59:03.508Z,5.80
2019-05-07T07:01:42.195Z,5.62
2019-05-07T07:04:22.487Z,4.58
2019-05-07T07:06:53.122Z,5.67
2019-05-07T07:09:29.601Z,9.43
2019-05-07T07:12:02.057Z,5.83
2019-05-07T07:14:32.737Z,6.10
2019-05-07T07:17:03.132Z,6.50
2019-05-07T07:19:34.220Z,8.08
2019-05-07T07:22:02.868Z,6.40
2019-05-07T07:24:32.899Z,7.42
2019-05-07T07:27:02.487Z,5.53
2019-05-07T07:29:33.223Z,7.08
2019-05-07T07:32:06.328Z,7.85
2019-05-07T07:34:36.959Z,9.55
2019-05-07T07:37:09.868Z,12.55
2019-05-07T07:39:38.318Z,7.87
2019-05-07T07:42:08.835Z,3.95
2019-05-07T07:44:37.729Z,8.83
2019-05-07T07:47:06.831Z,8.45
2019-05-07T07:49:35.909Z,9.38
2019-05-07T07:52:05.018Z,8.85
2019-05-07T07:54:34.009Z,10.15
2019-05-07T07:57:12.588Z,9.45
2019-05-07T07:59:43.039Z,12.85
2019-05-07T08:02:13.694Z,10.18
2019-05-07T08:04:42.704Z,11.78
2019-05-07T08:07:12.516Z,11.22
2019-05-07T08:09:42.802Z,11.93
2019-05-07T08:12:12.696Z,12.18
2019-05-07T08:14:43.033Z,11.88
2019-05-07T08:17:13.063Z,11.00
2019-05-07T08:19:42.863Z,13.85
2019-05-07T08:22:12.299Z,13.40
2019-05-07T08:24:42.587Z,11.73
2019-05-07T08:27:14.731Z,13.05
2019-05-07T08:29:43.130Z,10.98
2019-05-07T08:32:14.197Z,12.88
2019-05-07T08:34:52.141Z,10.72
2019-05-07T08:37:24.328Z,11.08
2019-05-07T08:39:52.164Z,11.22
2019-05-07T08:42:22.825Z,14.85
2019-05-07T08:45:11.876Z,18.07
2019-05-07T08:47:44.817Z,15.25
2019-05-07T08:50:13.917Z,13.13
2019-05-07T08:52:43.109Z,19.92
2019-05-07T08:55:12.655Z,14.05
2019-05-07T08:57:42.151Z,12.07
2019-05-07T09:00:13.372Z,11.97
2019-05-07T09:02:42.866Z,10.25
2019-05-07T09:05:12.292Z,10.15
2019-05-07T09:07:42.532Z,11.22
2019-05-07T09:10:12.688Z,9.93
2019-05-07T09:12:42.980Z,12.53
2019-05-07T09:15:12.610Z,12.35
2019-05-07T09:17:42.317Z,11.95
2019-05-07T09:20:12.535Z,10.70
2019-05-07T09:22:42.792Z,8.63
2019-05-07T09:25:13.041Z,12.70
2019-05-07T09:27:43.992Z,11.43
2019-05-07T09:30:18.491Z,9.43
2019-05-07T09:32:52.174Z,11.45
2019-05-07T09:35:25.756Z,9.78
2019-05-07T09:37:54.977Z,12.03
2019-05-07T09:40:23.991Z,11.90
2019-05-07T09:42:53.091Z,9.15
2019-05-07T09:45:22.436Z,10.93
2019-05-07T09:47:52.266Z,10.68
2019-05-07T09:50:22.159Z,13.15
2019-05-07T09:52:51.827Z,16.48
2019-05-07T09:55:23.180Z,11.50
2019-05-07T09:57:52.805Z,12.85
2019-05-07T10:00:23.995Z,13.72
2019-05-07T10:02:52.969Z,12.00
2019-05-07T10:05:23.942Z,8.73
2019-05-07T10:07:52.951Z,11.63
2019-05-07T10:10:22.332Z,9.08
2019-05-07T10:13:02.429Z,9.53
2019-05-07T10:15:33.179Z,12.53
2019-05-07T10:18:04.368Z,7.65
2019-05-07T10:20:33.591Z,9.20
2019-05-07T10:23:02.891Z,10.58
2019-05-07T10:25:36.264Z,9.75
2019-05-07T10:28:05.472Z,9.15
2019-05-07T10:30:34.856Z,8.15
2019-05-07T10:33:04.255Z,7.80
2019-05-07T10:35:33.803Z,8.45
2019-05-07T10:38:03.191Z,8.48
2019-05-07T10:40:32.745Z,8.28
2019-05-07T10:43:02.035Z,8.53
2019-05-07T10:45:32.857Z,9.18
2019-05-07T10:48:15.727Z,8.65
2019-05-07T10:50:46.162Z,11.10
2019-05-07T10:53:15.367Z,8.20
2019-05-07T10:55:45.676Z,9.13
2019-05-07T10:58:14.879Z,6.30
2019-05-07T11:00:43.770Z,6.45
2019-05-07T11:03:12.959Z,7.67
2019-05-07T11:05:42.077Z,6.50
2019-05-07T11:08:11.494Z,5.87
2019-05-07T11:10:41.871Z,5.72
2019-05-07T11:13:12.856Z,4.90
2019-05-07T11:15:43.872Z,6.87
2019-05-07T11:18:14.631Z,7.22
2019-05-07T11:20:50.050Z,7.12
2019-05-07T11:23:17.749Z,6.12
2019-05-07T11:25:46.931Z,6.67
2019-05-07T11:28:15.824Z,5.58
2019-05-07T11:30:45.025Z,5.97
2019-05-07T11:33:14.126Z,7.30
2019-05-07T11:35:43.221Z,6.90
2019-05-07T11:38:20.570Z,10.03
2019-05-07T11:40:43.233Z,10.35
2019-05-07T11:43:22.108Z,7.30
2019-05-07T11:45:54.032Z,6.72
2019-05-07T11:48:23.919Z,9.58
2019-05-07T11:51:12.364Z,7.85
2019-05-07T11:53:43.521Z,7.47
2019-05-07T11:56:12.481Z,7.35
2019-05-07T11:58:41.544Z,9.38
2019-05-07T12:01:15.228Z,8.95
2019-05-07T12:03:44.302Z,7.42
2019-05-07T12:06:13.191Z,8.60
2019-05-07T12:08:49.747Z,8.55
2019-05-07T12:11:12.932Z,10.10
2019-05-07T12:13:42.785Z,12.23
2019-05-07T12:16:14.089Z,9.18
2019-05-07T12:18:43.146Z,7.65
2019-05-07T12:21:20.786Z,4.33
2019-05-07T12:23:43.045Z,9.18
2019-05-07T12:26:12.561Z,9.28
2019-05-07T12:28:41.998Z,8.60
2019-05-07T12:31:29.051Z,9.50
2019-05-07T12:34:05.611Z,8.70
2019-05-07T12:36:34.612Z,8.55
2019-05-07T12:39:05.635Z,9.38
2019-05-07T12:41:34.851Z,9.30
2019-05-07T12:44:06.621Z,9.03
2019-05-07T12:46:36.377Z,8.60
2019-05-07T12:49:06.038Z,11.22
2019-05-07T12:51:37.942Z,9.15
2019-05-07T12:54:27.343Z,9.85
2019-05-07T12:56:56.332Z,7.90
2019-05-07T12:59:25.230Z,7.53
2019-05-07T13:01:58.639Z,8.08
2019-05-07T13:04:29.221Z,12.45
2019-05-07T13:07:16.574Z,7.17
2019-05-07T13:09:46.320Z,8.88
2019-05-07T13:12:15.391Z,8.03
2019-05-07T13:14:44.491Z,10.88
2019-05-07T13:17:13.695Z,8.00
2019-05-07T13:19:42.791Z,6.83
2019-05-07T13:22:13.064Z,10.32
2019-05-07T13:24:42.700Z,5.80
2019-05-07T13:27:11.911Z,6.92
2019-05-07T13:29:42.464Z,8.73
2019-05-07T13:32:14.411Z,7.58
2019-05-07T13:34:43.856Z,7.50
2019-05-07T13:37:18.014Z,4.50
2019-05-07T13:39:48.542Z,8.83
2019-05-07T13:42:36.089Z,8.60
2019-05-07T13:45:09.030Z,6.83
2019-05-07T13:47:39.319Z,7.15
2019-05-07T13:50:08.482Z,8.53
2019-05-07T13:52:37.671Z,7.33
2019-05-07T13:55:08.101Z,5.55
2019-05-07T13:57:37.091Z,8.13
2019-05-07T14:00:09.920Z,5.58
2019-05-07T14:02:38.966Z,6.15
2019-05-07T14:05:08.343Z,5.42
2019-05-07T14:07:38.994Z,5.55
2019-05-07T14:10:08.523Z,5.95
2019-05-07T14:12:37.604Z,5.15
2019-05-07T14:15:07.743Z,6.60
2019-05-07T14:17:37.064Z,5.67
2019-05-07T14:20:06.868Z,9.63
2019-05-07T14:22:36.151Z,7.97
2019-05-07T14:25:06.675Z,7.12
2019-05-07T14:27:35.749Z,6.28
2019-05-07T14:30:06.761Z,7.72
2019-05-07T14:32:42.073Z,7.60
2019-05-07T14:35:22.931Z,8.50
2019-05-07T14:37:53.552Z,7.55
2019-05-07T14:40:25.174Z,9.10
2019-05-07T14:42:55.043Z,7.22
2019-05-07T14:45:24.104Z,6.70
2019-05-07T14:47:53.071Z,7.20
2019-05-07T14:50:22.604Z,8.60
2019-05-07T14:52:52.361Z,6.25
2019-05-07T14:55:22.424Z,6.25
2019-05-07T14:57:52.441Z,5.80
2019-05-07T15:00:22.553Z,6.20
2019-05-07T15:02:52.534Z,5.70
2019-05-07T15:05:22.358Z,5.60
2019-05-07T15:07:51.811Z,5.58
2019-05-07T15:10:22.300Z,8.58
2019-05-07T15:12:52.160Z,6.33
2019-05-07T15:15:21.965Z,3.95
2019-05-07T15:17:52.921Z,5.70
2019-05-07T15:20:22.539Z,6.10
2019-05-07T15:22:53.621Z,7.92
2019-05-07T15:25:22.770Z,5.60
2019-05-07T15:27:52.984Z,6.42
2019-05-07T15:30:22.573Z,8.65
2019-05-07T15:32:52.124Z,8.98
2019-05-07T15:35:21.791Z,7.42
2019-05-07T15:37:51.818Z,7.80
2019-05-07T15:40:22.472Z,10.85
2019-05-07T15:42:52.491Z,7.03
2019-05-07T15:45:21.848Z,6.35
2019-05-07T15:47:52.509Z,7.53
2019-05-07T15:50:23.324Z,6.35
2019-05-07T15:52:58.609Z,6.90
2019-05-07T15:55:24.571Z,6.65
2019-05-07T15:57:53.891Z,6.05
2019-05-07T16:00:24.814Z,6.22
2019-05-07T16:02:58.623Z,5.75
2019-05-07T16:05:27.596Z,5.60
2019-05-07T16:07:57.008Z,6.12
2019-05-07T16:10:26.632Z,5.75
2019-05-07T16:12:55.637Z,9.55
2019-05-07T16:15:24.708Z,5.95
2019-05-07T16:17:55.366Z,5.90
2019-05-07T16:20:26.067Z,7.12
2019-05-07T16:22:56.811Z,6.90
2019-05-07T16:25:26.032Z,7.37
2019-05-07T16:27:55.098Z,8.30
2019-05-07T16:30:24.499Z,6.20
2019-05-07T16:32:55.433Z,7.37
2019-05-07T16:35:24.881Z,6.72
2019-05-07T16:37:54.052Z,7.10
2019-05-07T16:40:23.246Z,7.05
2019-05-07T16:42:52.529Z,6.90
2019-05-07T16:45:22.066Z,5.72
2019-05-07T16:47:52.155Z,4.85
2019-05-07T16:50:22.335Z,6.15
2019-05-07T16:52:52.387Z,5.22
2019-05-07T16:55:22.465Z,7.72
2019-05-07T16:57:56.351Z,5.87
2019-05-07T17:00:33.011Z,6.75
2019-05-07T17:03:03.541Z,6.42
2019-05-07T17:05:32.753Z,8.80
2019-05-07T17:08:03.371Z,9.80
2019-05-07T17:10:32.463Z,6.37
2019-05-07T17:13:02.903Z,5.37
2019-05-07T17:15:33.858Z,5.00
2019-05-07T17:18:03.031Z,6.12
2019-05-07T17:20:32.842Z,7.72
2019-05-07T17:23:03.050Z,5.67
2019-05-07T17:25:38.513Z,7.20
2019-05-07T17:28:08.221Z,5.78
2019-05-07T17:30:38.033Z,7.65
2019-05-07T17:33:07.623Z,6.95
2019-05-07T17:35:36.732Z,6.35
2019-05-07T17:38:09.399Z,8.10
2019-05-07T17:40:36.657Z,6.10
2019-05-07T17:43:05.854Z,6.55
2019-05-07T17:45:34.864Z,6.50
2019-05-07T17:48:03.718Z,7.15
2019-05-07T17:50:43.904Z,6.10
2019-05-07T17:53:13.214Z,5.28
2019-05-07T17:55:42.415Z,4.80
2019-05-07T17:58:12.897Z,4.90
2019-05-07T18:00:44.489Z,6.55
2019-05-07T18:03:32.350Z,5.70
2019-05-07T18:06:02.348Z,6.70
2019-05-07T18:08:32.894Z,6.90
2019-05-07T18:11:10.839Z,5.80
2019-05-07T18:13:33.329Z,6.12
2019-05-07T18:16:03.952Z,4.95
2019-05-07T18:18:33.135Z,5.78
2019-05-07T18:21:02.820Z,5.42
2019-05-07T18:23:33.073Z,4.85
2019-05-07T18:26:02.144Z,5.05
2019-05-07T18:28:32.513Z,4.75
2019-05-07T18:31:02.053Z,3.92
2019-05-07T18:33:33.590Z,5.10
2019-05-07T18:36:03.331Z,5.28
2019-05-07T18:38:32.977Z,4.37
2019-05-07T18:41:02.748Z,5.05
2019-05-07T18:43:33.126Z,4.12
2019-05-07T18:46:02.495Z,3.95
2019-05-07T18:48:31.683Z,5.42
2019-05-07T18:51:02.524Z,6.15
2019-05-07T18:53:31.838Z,3.95
2019-05-07T18:56:01.729Z,4.47
2019-05-07T18:58:31.961Z,5.12
2019-05-07T19:01:02.913Z,4.33
2019-05-07T19:03:32.571Z,4.35
2019-05-07T19:06:02.782Z,4.28
2019-05-07T19:08:32.622Z,4.28
2019-05-07T19:11:05.552Z,5.33
2019-05-07T19:13:33.190Z,3.75
2019-05-07T19:16:02.940Z,4.62
2019-05-07T19:18:32.345Z,4.45
2019-05-07T19:21:01.730Z,4.35
2019-05-07T19:23:32.867Z,4.90
2019-05-07T19:26:02.477Z,3.90
2019-05-07T19:28:32.943Z,6.97
2019-05-07T19:31:02.645Z,3.80
2019-05-07T19:33:32.507Z,5.05
2019-05-07T19:36:02.032Z,4.12
2019-05-07T19:38:32.328Z,4.30
2019-05-07T19:41:02.263Z,4.90
2019-05-07T19:43:35.970Z,4.62
2019-05-07T19:46:03.463Z,4.42
2019-05-07T19:48:32.472Z,4.22
2019-05-07T19:51:02.915Z,5.47
2019-05-07T19:53:32.673Z,5.05
2019-05-07T19:56:04.633Z,5.20
2019-05-07T19:58:34.107Z,4.60
2019-05-07T20:01:04.865Z,4.67
2019-05-07T20:03:33.965Z,5.17
2019-05-07T20:06:02.940Z,5.40
2019-05-07T20:08:32.418Z,6.25
2019-05-07T20:11:03.282Z,6.37
2019-05-07T20:13:32.501Z,6.47
2019-05-07T20:16:05.871Z,6.35
2019-05-07T20:18:34.872Z,7.35
2019-05-07T20:21:03.752Z,8.48
2019-05-07T20:23:32.904Z,7.75
2019-05-07T20:26:03.514Z,6.72
2019-05-07T20:28:32.848Z,7.62
2019-05-07T20:31:01.982Z,9.20
2019-05-07T20:33:32.736Z,5.95
2019-05-07T20:36:02.675Z,8.13
2019-05-07T20:38:32.076Z,6.17
2019-05-07T20:41:02.109Z,7.03
2019-05-07T20:43:32.642Z,6.50
2019-05-07T20:46:02.662Z,6.97
2019-05-07T20:48:32.433Z,7.85
2019-05-07T20:51:01.817Z,7.83
2019-05-07T20:53:48.819Z,6.75
2019-05-07T20:56:19.449Z,7.30
2019-05-07T20:58:48.666Z,8.45
2019-05-07T21:01:17.647Z,5.45
2019-05-07T21:03:46.551Z,7.05
2019-05-07T21:06:15.547Z,6.85
2019-05-07T21:08:44.400Z,7.87
2019-05-07T21:11:13.310Z,8.33
2019-05-07T21:13:44.634Z,5.90
2019-05-07T21:16:13.142Z,8.45
2019-05-07T21:18:42.326Z,7.03
2019-05-07T21:21:12.481Z,7.72
2019-05-07T21:23:43.387Z,8.93
2019-05-07T21:26:13.163Z,8.35
2019-05-07T21:28:43.110Z,8.78
2019-05-07T21:31:12.734Z,9.65
2019-05-07T21:33:42.941Z,8.93
2019-05-07T21:36:12.386Z,11.00
2019-05-07T21:38:42.485Z,9.50
2019-05-07T21:41:12.874Z,8.78
2019-05-07T21:43:45.716Z,8.75
2019-05-07T21:46:13.063Z,7.35
2019-05-07T21:48:41.932Z,8.98
2019-05-07T21:51:12.199Z,11.68
2019-05-07T21:54:03.526Z,9.28
2019-05-07T21:56:33.588Z,9.18
2019-05-07T21:59:04.107Z,7.90
2019-05-07T22:01:35.367Z,11.40
2019-05-07T22:04:04.655Z,7.78
2019-05-07T22:06:33.557Z,7.28
2019-05-07T22:09:02.858Z,11.63
2019-05-07T22:11:32.411Z,9.35
2019-05-07T22:14:02.122Z,8.58
2019-05-07T22:16:32.781Z,10.20
2019-05-07T22:19:02.633Z,8.10
2019-05-07T22:21:33.898Z,9.40
2019-05-07T22:24:02.950Z,6.78
2019-05-07T22:26:32.386Z,9.28
2019-05-07T22:29:03.072Z,8.80
2019-05-07T22:31:37.120Z,7.28
2019-05-07T22:34:07.732Z,8.55
2019-05-07T22:36:36.591Z,9.33
2019-05-07T22:39:07.252Z,7.70
2019-05-07T22:41:36.234Z,8.88
2019-05-07T22:44:05.435Z,8.18
2019-05-07T22:46:35.047Z,8.70
2019-05-07T22:49:04.149Z,9.08
2019-05-07T22:51:33.247Z,12.28
2019-05-07T22:54:04.281Z,9.93
2019-05-07T22:56:52.358Z,10.45
2019-05-07T22:59:22.488Z,12.58
2019-05-07T23:01:54.855Z,11.22
2019-05-07T23:04:22.981Z,8.70
2019-05-07T23:06:52.781Z,10.28
2019-05-07T23:09:22.461Z,9.95
2019-05-07T23:11:52.562Z,8.73
2019-05-07T23:14:22.796Z,8.28
2019-05-07T23:16:52.559Z,10.93
2019-05-07T23:19:22.682Z,11.12
2019-05-07T23:21:52.301Z,8.93
2019-05-07T23:24:22.738Z,9.83
2019-05-07T23:26:53.676Z,8.48
2019-05-07T23:29:22.821Z,8.38
2019-05-07T23:31:52.793Z,9.20
2019-05-07T23:34:22.474Z,9.35
2019-05-07T23:36:53.452Z,8.93
2019-05-07T23:39:23.844Z,10.05
2019-05-07T23:41:54.267Z,8.60
2019-05-07T23:44:23.362Z,9.48
2019-05-07T23:46:52.564Z,8.23
2019-05-07T23:49:23.169Z,9.18
2019-05-07T23:51:53.074Z,9.48
2019-05-07T23:54:23.053Z,9.90
2019-05-07T23:57:04.917Z,9.35
2019-05-07T23:59:23.056Z,9.43
